sensor_id;sensor_type;location;lat;lon;timestamp;P1;P2;P0
28026;PMS5003;15344;52.342;-1.290;2023-05-02T00:01:21;10;10;
28026;PMS5003;15344;52.342;-1.290;2023-05-02T00:03:47;13;12;
28026;PMS5003;15344;52.342;-1.290;2023-05-02T00:06:12;13;12;
28026;PMS5003;15344;52.342;-1.290;2023-05-02T00:08:37;11;9;
28026;PMS5003;15344;52.342;-1.290;2023-05-02T00:11:02;12;11;
28026;PMS5003;15344;52.342;-1.290;2023-05-02T00:13:28;11;10;
28026;PMS5003;15344;52.342;-1.290;2023-05-02T00:15:53;7;7;
28026;PMS5003;15344;52.342;-1.290;2023-05-02T00:18:18;12;9;
28026;PMS5003;15344;52.342;-1.290;2023-05-02T00:20:44;11;9;
28026;PMS5003;15344;52.342;-1.290;2023-05-02T00:23:09;9;8;
28026;PMS5003;15344;52.342;-1.290;2023-05-02T00:25:34;9;9;
28026;PMS5003;15344;52.342;-1.290;2023-05-02T00:27:59;8;7;
28026;PMS5003;15344;52.342;-1.290;2023-05-02T00:30:25;10;7;
28026;PMS5003;15344;52.342;-1.290;2023-05-02T00:32:50;6;5;
28026;PMS5003;15344;52.342;-1.290;2023-05-02T00:35:15;8;7;
28026;PMS5003;15344;52.342;-1.290;2023-05-02T00:37:40;10;7;
28026;PMS5003;15344;52.342;-1.290;2023-05-02T00:40:06;10;7;
28026;PMS5003;15344;52.342;-1.290;2023-05-02T00:42:32;8;7;
28026;PMS5003;15344;52.342;-1.290;2023-05-02T00:44:56;5;5;
28026;PMS5003;15344;52.342;-1.290;2023-05-02T00:47:22;5;5;
28026;PMS5003;15344;52.342;-1.290;2023-05-02T00:49:48;5;5;
28026;PMS5003;15344;52.342;-1.290;2023-05-02T00:52:13;9;7;
28026;PMS5003;15344;52.342;-1.290;2023-05-02T00:54:38;12;6;
28026;PMS5003;15344;52.342;-1.290;2023-05-02T00:57:03;4;4;
28026;PMS5003;15344;52.342;-1.290;2023-05-02T00:59:28;6;4;
28026;PMS5003;15344;52.342;-1.290;2023-05-02T01:01:57;6;4;
28026;PMS5003;15344;52.342;-1.290;2023-05-02T01:04:22;4;4;
28026;PMS5003;15344;52.342;-1.290;2023-05-02T01:06:47;6;5;
28026;PMS5003;15344;52.342;-1.290;2023-05-02T01:09:15;7;5;
28026;PMS5003;15344;52.342;-1.290;2023-05-02T01:11:38;9;5;
28026;PMS5003;15344;52.342;-1.290;2023-05-02T01:14:02;8;5;
28026;PMS5003;15344;52.342;-1.290;2023-05-02T01:16:26;5;5;
28026;PMS5003;15344;52.342;-1.290;2023-05-02T01:18:52;4;4;
28026;PMS5003;15344;52.342;-1.290;2023-05-02T01:21:17;6;6;
28026;PMS5003;15344;52.342;-1.290;2023-05-02T01:23:45;6;5;
28026;PMS5003;15344;52.342;-1.290;2023-05-02T01:28:35;12;8;
28026;PMS5003;15344;52.342;-1.290;2023-05-02T01:30:58;6;6;
28026;PMS5003;15344;52.342;-1.290;2023-05-02T01:33:24;7;7;
28026;PMS5003;15344;52.342;-1.290;2023-05-02T01:35:49;8;8;
28026;PMS5003;15344;52.342;-1.290;2023-05-02T01:38:14;9;7;
28026;PMS5003;15344;52.342;-1.290;2023-05-02T01:40:40;11;7;
28026;PMS5003;15344;52.342;-1.290;2023-05-02T01:43:05;5;5;
28026;PMS5003;15344;52.342;-1.290;2023-05-02T01:45:30;10;10;
28026;PMS5003;15344;52.342;-1.290;2023-05-02T01:47:56;7;7;
28026;PMS5003;15344;52.342;-1.290;2023-05-02T01:50:22;8;8;
28026;PMS5003;15344;52.342;-1.290;2023-05-02T01:52:47;14;9;
28026;PMS5003;15344;52.342;-1.290;2023-05-02T01:55:12;7;7;
28026;PMS5003;15344;52.342;-1.290;2023-05-02T01:57:38;8;7;
28026;PMS5003;15344;52.342;-1.290;2023-05-02T02:00:03;9;9;
28026;PMS5003;15344;52.342;-1.290;2023-05-02T02:02:28;6;6;
28026;PMS5003;15344;52.342;-1.290;2023-05-02T02:04:53;8;8;
28026;PMS5003;15344;52.342;-1.290;2023-05-02T02:07:18;7;7;
28026;PMS5003;15344;52.342;-1.290;2023-05-02T02:09:44;8;7;
28026;PMS5003;15344;52.342;-1.290;2023-05-02T02:12:10;7;7;
28026;PMS5003;15344;52.342;-1.290;2023-05-02T02:14:35;10;8;
28026;PMS5003;15344;52.342;-1.290;2023-05-02T02:17:00;6;6;
28026;PMS5003;15344;52.342;-1.290;2023-05-02T02:19:25;13;9;
28026;PMS5003;15344;52.342;-1.290;2023-05-02T02:21:51;9;9;
28026;PMS5003;15344;52.342;-1.290;2023-05-02T02:24:16;13;10;
28026;PMS5003;15344;52.342;-1.290;2023-05-02T02:26:41;12;8;
28026;PMS5003;15344;52.342;-1.290;2023-05-02T02:29:07;11;6;
28026;PMS5003;15344;52.342;-1.290;2023-05-02T02:31:32;9;9;
28026;PMS5003;15344;52.342;-1.290;2023-05-02T02:33:57;10;7;
28026;PMS5003;15344;52.342;-1.290;2023-05-02T02:36:24;9;8;
28026;PMS5003;15344;52.342;-1.290;2023-05-02T02:38:49;10;7;
28026;PMS5003;15344;52.342;-1.290;2023-05-02T02:41:15;13;9;
28026;PMS5003;15344;52.342;-1.290;2023-05-02T02:43:41;8;8;
28026;PMS5003;15344;52.342;-1.290;2023-05-02T02:46:07;9;7;
28026;PMS5003;15344;52.342;-1.290;2023-05-02T02:48:31;9;7;
28026;PMS5003;15344;52.342;-1.290;2023-05-02T02:50:58;13;8;
28026;PMS5003;15344;52.342;-1.290;2023-05-02T02:53:24;13;9;
28026;PMS5003;15344;52.342;-1.290;2023-05-02T02:55:46;10;8;
28026;PMS5003;15344;52.342;-1.290;2023-05-02T02:58:17;10;9;
28026;PMS5003;15344;52.342;-1.290;2023-05-02T03:00:36;7;7;
28026;PMS5003;15344;52.342;-1.290;2023-05-02T03:03:02;14;9;
28026;PMS5003;15344;52.342;-1.290;2023-05-02T03:05:27;12;9;
28026;PMS5003;15344;52.342;-1.290;2023-05-02T03:07:52;12;9;
28026;PMS5003;15344;52.342;-1.290;2023-05-02T03:10:18;11;7;
28026;PMS5003;15344;52.342;-1.290;2023-05-02T03:12:43;10;8;
28026;PMS5003;15344;52.342;-1.290;2023-05-02T03:15:13;9;8;
28026;PMS5003;15344;52.342;-1.290;2023-05-02T03:17:34;9;6;
28026;PMS5003;15344;52.342;-1.290;2023-05-02T03:19:59;6;5;
28026;PMS5003;15344;52.342;-1.290;2023-05-02T03:22:24;9;7;
28026;PMS5003;15344;52.342;-1.290;2023-05-02T03:24:49;10;8;
28026;PMS5003;15344;52.342;-1.290;2023-05-02T03:27:15;11;9;
28026;PMS5003;15344;52.342;-1.290;2023-05-02T03:29:41;15;9;
28026;PMS5003;15344;52.342;-1.290;2023-05-02T03:32:07;8;8;
28026;PMS5003;15344;52.342;-1.290;2023-05-02T03:34:32;13;11;
28026;PMS5003;15344;52.342;-1.290;2023-05-02T03:36:58;11;9;
28026;PMS5003;15344;52.342;-1.290;2023-05-02T03:39:23;13;7;
28026;PMS5003;15344;52.342;-1.290;2023-05-02T03:41:48;8;7;
28026;PMS5003;15344;52.342;-1.290;2023-05-02T03:44:13;14;11;
28026;PMS5003;15344;52.342;-1.290;2023-05-02T03:46:38;10;9;
28026;PMS5003;15344;52.342;-1.290;2023-05-02T03:49:04;17;12;
28026;PMS5003;15344;52.342;-1.290;2023-05-02T03:51:30;11;11;
28026;PMS5003;15344;52.342;-1.290;2023-05-02T03:53:55;17;11;
28026;PMS5003;15344;52.342;-1.290;2023-05-02T03:56:21;18;15;
28026;PMS5003;15344;52.342;-1.290;2023-05-02T03:58:46;18;15;
28026;PMS5003;15344;52.342;-1.290;2023-05-02T04:01:12;12;11;
28026;PMS5003;15344;52.342;-1.290;2023-05-02T04:03:36;12;9;
28026;PMS5003;15344;52.342;-1.290;2023-05-02T04:06:02;16;12;
28026;PMS5003;15344;52.342;-1.290;2023-05-02T04:08:27;17;14;
28026;PMS5003;15344;52.342;-1.290;2023-05-02T04:10:53;14;12;
28026;PMS5003;15344;52.342;-1.290;2023-05-02T04:13:18;14;11;
28026;PMS5003;15344;52.342;-1.290;2023-05-02T04:15:44;16;13;
28026;PMS5003;15344;52.342;-1.290;2023-05-02T04:18:10;15;13;
28026;PMS5003;15344;52.342;-1.290;2023-05-02T04:20:35;13;10;
28026;PMS5003;15344;52.342;-1.290;2023-05-02T04:23:00;18;12;
28026;PMS5003;15344;52.342;-1.290;2023-05-02T04:25:26;20;16;
28026;PMS5003;15344;52.342;-1.290;2023-05-02T04:27:52;12;10;
28026;PMS5003;15344;52.342;-1.290;2023-05-02T04:30:17;18;14;
28026;PMS5003;15344;52.342;-1.290;2023-05-02T04:32:42;11;10;
28026;PMS5003;15344;52.342;-1.290;2023-05-02T04:35:08;16;13;
28026;PMS5003;15344;52.342;-1.290;2023-05-02T04:37:34;18;13;
28026;PMS5003;15344;52.342;-1.290;2023-05-02T04:39:59;17;13;
28026;PMS5003;15344;52.342;-1.290;2023-05-02T04:42:25;15;12;
28026;PMS5003;15344;52.342;-1.290;2023-05-02T04:44:50;10;10;
28026;PMS5003;15344;52.342;-1.290;2023-05-02T04:47:15;17;12;
28026;PMS5003;15344;52.342;-1.290;2023-05-02T04:49:41;17;13;
28026;PMS5003;15344;52.342;-1.290;2023-05-02T04:52:05;11;9;
28026;PMS5003;15344;52.342;-1.290;2023-05-02T04:54:31;14;8;
28026;PMS5003;15344;52.342;-1.290;2023-05-02T04:56:56;11;9;
28026;PMS5003;15344;52.342;-1.290;2023-05-02T04:59:21;14;11;
28026;PMS5003;15344;52.342;-1.290;2023-05-02T05:01:47;11;10;
28026;PMS5003;15344;52.342;-1.290;2023-05-02T05:04:13;14;11;
28026;PMS5003;15344;52.342;-1.290;2023-05-02T05:06:37;12;10;
28026;PMS5003;15344;52.342;-1.290;2023-05-02T05:09:03;14;12;
28026;PMS5003;15344;52.342;-1.290;2023-05-02T05:11:28;11;11;
28026;PMS5003;15344;52.342;-1.290;2023-05-02T05:13:53;13;9;
28026;PMS5003;15344;52.342;-1.290;2023-05-02T05:16:19;9;9;
28026;PMS5003;15344;52.342;-1.290;2023-05-02T05:18:44;10;8;
28026;PMS5003;15344;52.342;-1.290;2023-05-02T05:21:09;11;9;
28026;PMS5003;15344;52.342;-1.290;2023-05-02T05:23:34;12;9;
28026;PMS5003;15344;52.342;-1.290;2023-05-02T05:28:25;9;8;
28026;PMS5003;15344;52.342;-1.290;2023-05-02T05:30:50;9;7;
28026;PMS5003;15344;52.342;-1.290;2023-05-02T05:33:16;9;9;
28026;PMS5003;15344;52.342;-1.290;2023-05-02T05:35:41;10;8;
28026;PMS5003;15344;52.342;-1.290;2023-05-02T05:38:06;8;7;
28026;PMS5003;15344;52.342;-1.290;2023-05-02T05:40:32;14;10;
28026;PMS5003;15344;52.342;-1.290;2023-05-02T05:42:57;9;7;
28026;PMS5003;15344;52.342;-1.290;2023-05-02T05:45:22;13;8;
28026;PMS5003;15344;52.342;-1.290;2023-05-02T05:47:47;10;8;
28026;PMS5003;15344;52.342;-1.290;2023-05-02T05:50:12;9;6;
28026;PMS5003;15344;52.342;-1.290;2023-05-02T05:52:38;9;6;
28026;PMS5003;15344;52.342;-1.290;2023-05-02T05:55:03;7;7;
28026;PMS5003;15344;52.342;-1.290;2023-05-02T05:57:28;11;8;
28026;PMS5003;15344;52.342;-1.290;2023-05-02T05:59:54;14;9;
28026;PMS5003;15344;52.342;-1.290;2023-05-02T06:02:19;11;9;
28026;PMS5003;15344;52.342;-1.290;2023-05-02T06:04:44;10;8;
28026;PMS5003;15344;52.342;-1.290;2023-05-02T06:07:09;10;10;
28026;PMS5003;15344;52.342;-1.290;2023-05-02T06:09:35;14;11;
28026;PMS5003;15344;52.342;-1.290;2023-05-02T06:12:01;10;7;
28026;PMS5003;15344;52.342;-1.290;2023-05-02T06:14:26;14;13;
28026;PMS5003;15344;52.342;-1.290;2023-05-02T06:16:51;12;7;
28026;PMS5003;15344;52.342;-1.290;2023-05-02T06:19:17;8;7;
28026;PMS5003;15344;52.342;-1.290;2023-05-02T06:21:42;11;6;
28026;PMS5003;15344;52.342;-1.290;2023-05-02T06:24:08;8;8;
28026;PMS5003;15344;52.342;-1.290;2023-05-02T06:26:34;10;8;
28026;PMS5003;15344;52.342;-1.290;2023-05-02T06:28:59;13;9;
28026;PMS5003;15344;52.342;-1.290;2023-05-02T06:31:24;11;10;
28026;PMS5003;15344;52.342;-1.290;2023-05-02T06:33:49;7;6;
28026;PMS5003;15344;52.342;-1.290;2023-05-02T06:36:15;9;9;
28026;PMS5003;15344;52.342;-1.290;2023-05-02T06:38:41;7;5;
28026;PMS5003;15344;52.342;-1.290;2023-05-02T06:41:10;8;5;
28026;PMS5003;15344;52.342;-1.290;2023-05-02T06:43:31;8;6;
28026;PMS5003;15344;52.342;-1.290;2023-05-02T06:45:57;4;4;
28026;PMS5003;15344;52.342;-1.290;2023-05-02T06:48:22;5;4;
28026;PMS5003;15344;52.342;-1.290;2023-05-02T06:50:48;9;5;
28026;PMS5003;15344;52.342;-1.290;2023-05-02T06:53:13;5;5;
28026;PMS5003;15344;52.342;-1.290;2023-05-02T06:55:38;4;4;
28026;PMS5003;15344;52.342;-1.290;2023-05-02T06:58:03;4;3;
28026;PMS5003;15344;52.342;-1.290;2023-05-02T07:00:29;3;2;
28026;PMS5003;15344;52.342;-1.290;2023-05-02T07:02:54;6;4;
28026;PMS5003;15344;52.342;-1.290;2023-05-02T07:05:19;9;4;
28026;PMS5003;15344;52.342;-1.290;2023-05-02T07:07:45;3;3;
28026;PMS5003;15344;52.342;-1.290;2023-05-02T07:10:10;5;5;
28026;PMS5003;15344;52.342;-1.290;2023-05-02T07:12:35;6;5;
28026;PMS5003;15344;52.342;-1.290;2023-05-02T07:15:06;7;4;
28026;PMS5003;15344;52.342;-1.290;2023-05-02T07:17:26;6;5;
28026;PMS5003;15344;52.342;-1.290;2023-05-02T07:19:51;6;5;
28026;PMS5003;15344;52.342;-1.290;2023-05-02T07:22:16;7;4;
28026;PMS5003;15344;52.342;-1.290;2023-05-02T07:24:42;6;4;
28026;PMS5003;15344;52.342;-1.290;2023-05-02T07:27:07;7;6;
28026;PMS5003;15344;52.342;-1.290;2023-05-02T07:29:32;5;4;
28026;PMS5003;15344;52.342;-1.290;2023-05-02T07:31:57;3;3;
28026;PMS5003;15344;52.342;-1.290;2023-05-02T07:34:23;3;3;
28026;PMS5003;15344;52.342;-1.290;2023-05-02T07:36:48;7;4;
28026;PMS5003;15344;52.342;-1.290;2023-05-02T07:39:13;10;5;
28026;PMS5003;15344;52.342;-1.290;2023-05-02T07:41:39;5;5;
28026;PMS5003;15344;52.342;-1.290;2023-05-02T07:44:04;5;5;
28026;PMS5003;15344;52.342;-1.290;2023-05-02T07:46:29;3;3;
28026;PMS5003;15344;52.342;-1.290;2023-05-02T07:48:54;6;5;
28026;PMS5003;15344;52.342;-1.290;2023-05-02T07:51:20;7;6;
28026;PMS5003;15344;52.342;-1.290;2023-05-02T07:53:45;4;4;
28026;PMS5003;15344;52.342;-1.290;2023-05-02T07:56:10;7;5;
28026;PMS5003;15344;52.342;-1.290;2023-05-02T07:58:36;9;6;
28026;PMS5003;15344;52.342;-1.290;2023-05-02T08:01:01;6;6;
28026;PMS5003;15344;52.342;-1.290;2023-05-02T08:03:26;8;6;
28026;PMS5003;15344;52.342;-1.290;2023-05-02T08:05:51;9;9;
28026;PMS5003;15344;52.342;-1.290;2023-05-02T08:08:17;9;7;
28026;PMS5003;15344;52.342;-1.290;2023-05-02T08:10:42;9;8;
28026;PMS5003;15344;52.342;-1.290;2023-05-02T08:13:07;4;4;
28026;PMS5003;15344;52.342;-1.290;2023-05-02T08:15:33;8;8;
28026;PMS5003;15344;52.342;-1.290;2023-05-02T08:17:58;13;9;
28026;PMS5003;15344;52.342;-1.290;2023-05-02T08:20:23;10;8;
28026;PMS5003;15344;52.342;-1.290;2023-05-02T08:22:48;10;8;
28026;PMS5003;15344;52.342;-1.290;2023-05-02T08:25:14;10;7;
28026;PMS5003;15344;52.342;-1.290;2023-05-02T08:27:39;9;6;
28026;PMS5003;15344;52.342;-1.290;2023-05-02T08:30:05;7;6;
28026;PMS5003;15344;52.342;-1.290;2023-05-02T08:32:31;10;7;
28026;PMS5003;15344;52.342;-1.290;2023-05-02T08:34:55;10;7;
28026;PMS5003;15344;52.342;-1.290;2023-05-02T08:37:20;7;7;
28026;PMS5003;15344;52.342;-1.290;2023-05-02T08:39:46;5;5;
28026;PMS5003;15344;52.342;-1.290;2023-05-02T08:42:11;4;4;
28026;PMS5003;15344;52.342;-1.290;2023-05-02T08:44:36;7;6;
28026;PMS5003;15344;52.342;-1.290;2023-05-02T08:47:01;4;4;
28026;PMS5003;15344;52.342;-1.290;2023-05-02T08:49:26;8;8;
28026;PMS5003;15344;52.342;-1.290;2023-05-02T08:51:52;3;3;
28026;PMS5003;15344;52.342;-1.290;2023-05-02T08:54:17;8;8;
28026;PMS5003;15344;52.342;-1.290;2023-05-02T08:56:42;5;5;
28026;PMS5003;15344;52.342;-1.290;2023-05-02T08:59:07;6;6;
28026;PMS5003;15344;52.342;-1.290;2023-05-02T09:01:32;5;5;
28026;PMS5003;15344;52.342;-1.290;2023-05-02T09:03:57;8;7;
28026;PMS5003;15344;52.342;-1.290;2023-05-02T09:06:22;4;4;
28026;PMS5003;15344;52.342;-1.290;2023-05-02T09:08:48;6;4;
28026;PMS5003;15344;52.342;-1.290;2023-05-02T09:11:13;5;5;
28026;PMS5003;15344;52.342;-1.290;2023-05-02T09:13:39;4;4;
28026;PMS5003;15344;52.342;-1.290;2023-05-02T09:16:05;5;5;
28026;PMS5003;15344;52.342;-1.290;2023-05-02T09:18:32;8;7;
28026;PMS5003;15344;52.342;-1.290;2023-05-02T09:20:58;4;4;
28026;PMS5003;15344;52.342;-1.290;2023-05-02T09:25:48;7;5;
28026;PMS5003;15344;52.342;-1.290;2023-05-02T09:28:14;5;5;
28026;PMS5003;15344;52.342;-1.290;2023-05-02T09:30:40;5;5;
28026;PMS5003;15344;52.342;-1.290;2023-05-02T09:33:05;4;2;
28026;PMS5003;15344;52.342;-1.290;2023-05-02T09:35:31;4;4;
28026;PMS5003;15344;52.342;-1.290;2023-05-02T09:37:57;6;5;
28026;PMS5003;15344;52.342;-1.290;2023-05-02T09:40:23;3;3;
28026;PMS5003;15344;52.342;-1.290;2023-05-02T09:42:49;4;4;
28026;PMS5003;15344;52.342;-1.290;2023-05-02T09:45:18;4;2;
28026;PMS5003;15344;52.342;-1.290;2023-05-02T09:47:40;2;2;
28026;PMS5003;15344;52.342;-1.290;2023-05-02T09:50:06;6;4;
28026;PMS5003;15344;52.342;-1.290;2023-05-02T09:52:32;3;3;
28026;PMS5003;15344;52.342;-1.290;2023-05-02T09:54:57;3;3;
28026;PMS5003;15344;52.342;-1.290;2023-05-02T09:59:53;3;3;
28026;PMS5003;15344;52.342;-1.290;2023-05-02T10:02:15;4;4;
28026;PMS5003;15344;52.342;-1.290;2023-05-02T10:04:40;3;3;
28026;PMS5003;15344;52.342;-1.290;2023-05-02T10:07:06;5;5;
28026;PMS5003;15344;52.342;-1.290;2023-05-02T10:09:33;3;3;
28026;PMS5003;15344;52.342;-1.290;2023-05-02T10:11:59;3;3;
28026;PMS5003;15344;52.342;-1.290;2023-05-02T10:14:24;6;4;
28026;PMS5003;15344;52.342;-1.290;2023-05-02T10:16:52;7;5;
28026;PMS5003;15344;52.342;-1.290;2023-05-02T10:19:15;5;5;
28026;PMS5003;15344;52.342;-1.290;2023-05-02T10:21:39;5;5;
28026;PMS5003;15344;52.342;-1.290;2023-05-02T10:24:04;7;5;
28026;PMS5003;15344;52.342;-1.290;2023-05-02T10:26:29;3;3;
28026;PMS5003;15344;52.342;-1.290;2023-05-02T10:28:54;7;5;
28026;PMS5003;15344;52.342;-1.290;2023-05-02T10:31:19;6;6;
28026;PMS5003;15344;52.342;-1.290;2023-05-02T10:33:44;4;4;
28026;PMS5003;15344;52.342;-1.290;2023-05-02T10:36:10;5;4;
28026;PMS5003;15344;52.342;-1.290;2023-05-02T10:38:34;8;5;
28026;PMS5003;15344;52.342;-1.290;2023-05-02T10:41:00;4;3;
28026;PMS5003;15344;52.342;-1.290;2023-05-02T10:43:25;3;3;
28026;PMS5003;15344;52.342;-1.290;2023-05-02T10:45:49;4;4;
28026;PMS5003;15344;52.342;-1.290;2023-05-02T10:48:15;3;3;
28026;PMS5003;15344;52.342;-1.290;2023-05-02T10:50:42;5;5;
28026;PMS5003;15344;52.342;-1.290;2023-05-02T10:55:30;6;6;
28026;PMS5003;15344;52.342;-1.290;2023-05-02T11:00:21;3;3;
28026;PMS5003;15344;52.342;-1.290;2023-05-02T11:02:46;4;4;
28026;PMS5003;15344;52.342;-1.290;2023-05-02T11:05:11;6;4;
28026;PMS5003;15344;52.342;-1.290;2023-05-02T11:07:36;7;5;
28026;PMS5003;15344;52.342;-1.290;2023-05-02T11:14:51;5;5;
28026;PMS5003;15344;52.342;-1.290;2023-05-02T11:17:16;4;4;
28026;PMS5003;15344;52.342;-1.290;2023-05-02T11:31:52;9;7;
28026;PMS5003;15344;52.342;-1.290;2023-05-02T11:34:13;8;6;
28026;PMS5003;15344;52.342;-1.290;2023-05-02T11:36:37;8;7;
28026;PMS5003;15344;52.342;-1.290;2023-05-02T11:39:03;8;8;
28026;PMS5003;15344;52.342;-1.290;2023-05-02T11:46:18;7;7;
28026;PMS5003;15344;52.342;-1.290;2023-05-02T11:48:44;10;8;
28026;PMS5003;15344;52.342;-1.290;2023-05-02T11:51:09;6;5;
28026;PMS5003;15344;52.342;-1.290;2023-05-02T11:53:38;8;8;
28026;PMS5003;15344;52.342;-1.290;2023-05-02T11:56:01;8;7;
28026;PMS5003;15344;52.342;-1.290;2023-05-02T11:58:26;10;7;
28026;PMS5003;15344;52.342;-1.290;2023-05-02T12:00:51;7;7;
28026;PMS5003;15344;52.342;-1.290;2023-05-02T12:03:20;6;6;
28026;PMS5003;15344;52.342;-1.290;2023-05-02T12:05:41;7;6;
28026;PMS5003;15344;52.342;-1.290;2023-05-02T12:08:06;9;8;
28026;PMS5003;15344;52.342;-1.290;2023-05-02T12:10:35;10;8;
28026;PMS5003;15344;52.342;-1.290;2023-05-02T12:13:02;5;5;
28026;PMS5003;15344;52.342;-1.290;2023-05-02T12:15:22;6;6;
28026;PMS5003;15344;52.342;-1.290;2023-05-02T12:17:46;11;8;
28026;PMS5003;15344;52.342;-1.290;2023-05-02T12:20:12;10;6;
28026;PMS5003;15344;52.342;-1.290;2023-05-02T12:22:37;7;7;
28026;PMS5003;15344;52.342;-1.290;2023-05-02T12:25:03;5;5;
28026;PMS5003;15344;52.342;-1.290;2023-05-02T12:27:27;7;7;
28026;PMS5003;15344;52.342;-1.290;2023-05-02T12:29:52;6;5;
28026;PMS5003;15344;52.342;-1.290;2023-05-02T12:34:42;4;4;
28026;PMS5003;15344;52.342;-1.290;2023-05-02T12:37:08;7;4;
28026;PMS5003;15344;52.342;-1.290;2023-05-02T12:39:33;6;6;
28026;PMS5003;15344;52.342;-1.290;2023-05-02T12:41:58;9;6;
28026;PMS5003;15344;52.342;-1.290;2023-05-02T12:49:13;8;8;
28026;PMS5003;15344;52.342;-1.290;2023-05-02T12:51:39;8;7;
28026;PMS5003;15344;52.342;-1.290;2023-05-02T12:54:04;7;6;
28026;PMS5003;15344;52.342;-1.290;2023-05-02T12:56:29;17;9;
28026;PMS5003;15344;52.342;-1.290;2023-05-02T12:58:54;8;6;
28026;PMS5003;15344;52.342;-1.290;2023-05-02T13:01:19;7;7;
28026;PMS5003;15344;52.342;-1.290;2023-05-02T13:03:44;9;8;
28026;PMS5003;15344;52.342;-1.290;2023-05-02T13:06:10;8;6;
28026;PMS5003;15344;52.342;-1.290;2023-05-02T13:08:35;12;5;
28026;PMS5003;15344;52.342;-1.290;2023-05-02T13:11:00;9;8;
28026;PMS5003;15344;52.342;-1.290;2023-05-02T13:13:25;9;7;
28026;PMS5003;15344;52.342;-1.290;2023-05-02T13:15:50;8;5;
28026;PMS5003;15344;52.342;-1.290;2023-05-02T13:18:15;8;6;
28026;PMS5003;15344;52.342;-1.290;2023-05-02T13:20:40;10;10;
28026;PMS5003;15344;52.342;-1.290;2023-05-02T13:23:05;6;6;
28026;PMS5003;15344;52.342;-1.290;2023-05-02T13:25:31;6;6;
28026;PMS5003;15344;52.342;-1.290;2023-05-02T13:27:56;9;9;
28026;PMS5003;15344;52.342;-1.290;2023-05-02T13:30:21;12;9;
28026;PMS5003;15344;52.342;-1.290;2023-05-02T13:32:46;11;7;
28026;PMS5003;15344;52.342;-1.290;2023-05-02T13:35:12;9;9;
28026;PMS5003;15344;52.342;-1.290;2023-05-02T13:37:37;10;8;
28026;PMS5003;15344;52.342;-1.290;2023-05-02T13:40:03;10;8;
28026;PMS5003;15344;52.342;-1.290;2023-05-02T13:42:28;9;8;
28026;PMS5003;15344;52.342;-1.290;2023-05-02T13:44:53;7;6;
28026;PMS5003;15344;52.342;-1.290;2023-05-02T13:47:18;10;9;
28026;PMS5003;15344;52.342;-1.290;2023-05-02T13:49:43;11;9;
28026;PMS5003;15344;52.342;-1.290;2023-05-02T13:52:08;11;8;
28026;PMS5003;15344;52.342;-1.290;2023-05-02T13:54:33;6;5;
28026;PMS5003;15344;52.342;-1.290;2023-05-02T13:56:58;6;6;
28026;PMS5003;15344;52.342;-1.290;2023-05-02T13:59:24;8;6;
28026;PMS5003;15344;52.342;-1.290;2023-05-02T14:01:49;8;6;
28026;PMS5003;15344;52.342;-1.290;2023-05-02T14:04:14;9;9;
28026;PMS5003;15344;52.342;-1.290;2023-05-02T14:06:39;9;9;
28026;PMS5003;15344;52.342;-1.290;2023-05-02T14:09:05;9;9;
28026;PMS5003;15344;52.342;-1.290;2023-05-02T14:11:30;8;7;
28026;PMS5003;15344;52.342;-1.290;2023-05-02T14:13:55;11;8;
28026;PMS5003;15344;52.342;-1.290;2023-05-02T14:16:20;12;10;
28026;PMS5003;15344;52.342;-1.290;2023-05-02T14:18:46;11;9;
28026;PMS5003;15344;52.342;-1.290;2023-05-02T14:21:12;9;7;
28026;PMS5003;15344;52.342;-1.290;2023-05-02T14:23:36;7;6;
28026;PMS5003;15344;52.342;-1.290;2023-05-02T14:26:02;6;6;
28026;PMS5003;15344;52.342;-1.290;2023-05-02T14:28:27;7;7;
28026;PMS5003;15344;52.342;-1.290;2023-05-02T14:30:52;9;6;
28026;PMS5003;15344;52.342;-1.290;2023-05-02T14:33:17;8;7;
28026;PMS5003;15344;52.342;-1.290;2023-05-02T14:35:42;8;7;
28026;PMS5003;15344;52.342;-1.290;2023-05-02T14:38:07;9;9;
28026;PMS5003;15344;52.342;-1.290;2023-05-02T14:40:32;11;6;
28026;PMS5003;15344;52.342;-1.290;2023-05-02T14:42:57;9;9;
28026;PMS5003;15344;52.342;-1.290;2023-05-02T14:45:22;8;6;
28026;PMS5003;15344;52.342;-1.290;2023-05-02T14:47:48;7;5;
28026;PMS5003;15344;52.342;-1.290;2023-05-02T14:50:13;9;8;
28026;PMS5003;15344;52.342;-1.290;2023-05-02T14:52:38;9;6;
28026;PMS5003;15344;52.342;-1.290;2023-05-02T14:55:03;9;9;
28026;PMS5003;15344;52.342;-1.290;2023-05-02T14:57:28;7;7;
28026;PMS5003;15344;52.342;-1.290;2023-05-02T14:59:53;7;6;
28026;PMS5003;15344;52.342;-1.290;2023-05-02T15:02:19;10;9;
28026;PMS5003;15344;52.342;-1.290;2023-05-02T15:04:44;15;13;
28026;PMS5003;15344;52.342;-1.290;2023-05-02T15:07:10;9;9;
28026;PMS5003;15344;52.342;-1.290;2023-05-02T15:09:34;9;8;
28026;PMS5003;15344;52.342;-1.290;2023-05-02T15:12:00;9;8;
28026;PMS5003;15344;52.342;-1.290;2023-05-02T15:14:25;7;6;
28026;PMS5003;15344;52.342;-1.290;2023-05-02T15:16:50;8;8;
28026;PMS5003;15344;52.342;-1.290;2023-05-02T15:19:15;11;10;
28026;PMS5003;15344;52.342;-1.290;2023-05-02T15:21:41;10;7;
28026;PMS5003;15344;52.342;-1.290;2023-05-02T15:24:07;13;9;
28026;PMS5003;15344;52.342;-1.290;2023-05-02T15:26:32;8;6;
28026;PMS5003;15344;52.342;-1.290;2023-05-02T15:28:57;8;8;
28026;PMS5003;15344;52.342;-1.290;2023-05-02T15:31:23;10;10;
28026;PMS5003;15344;52.342;-1.290;2023-05-02T15:33:48;8;7;
28026;PMS5003;15344;52.342;-1.290;2023-05-02T15:36:13;11;8;
28026;PMS5003;15344;52.342;-1.290;2023-05-02T15:38:38;8;8;
28026;PMS5003;15344;52.342;-1.290;2023-05-02T15:41:03;9;7;
28026;PMS5003;15344;52.342;-1.290;2023-05-02T15:43:28;7;7;
28026;PMS5003;15344;52.342;-1.290;2023-05-02T15:45:54;11;9;
28026;PMS5003;15344;52.342;-1.290;2023-05-02T15:48:19;10;8;
28026;PMS5003;15344;52.342;-1.290;2023-05-02T15:50:44;9;8;
28026;PMS5003;15344;52.342;-1.290;2023-05-02T15:53:10;9;6;
28026;PMS5003;15344;52.342;-1.290;2023-05-02T15:55:35;7;6;
28026;PMS5003;15344;52.342;-1.290;2023-05-02T15:58:00;12;9;
28026;PMS5003;15344;52.342;-1.290;2023-05-02T16:00:25;11;8;
28026;PMS5003;15344;52.342;-1.290;2023-05-02T16:02:50;9;6;
28026;PMS5003;15344;52.342;-1.290;2023-05-02T16:05:15;10;8;
28026;PMS5003;15344;52.342;-1.290;2023-05-02T16:07:41;12;11;
28026;PMS5003;15344;52.342;-1.290;2023-05-02T16:10:07;9;8;
28026;PMS5003;15344;52.342;-1.290;2023-05-02T16:12:31;10;7;
28026;PMS5003;15344;52.342;-1.290;2023-05-02T16:14:56;10;10;
28026;PMS5003;15344;52.342;-1.290;2023-05-02T16:17:22;13;8;
28026;PMS5003;15344;52.342;-1.290;2023-05-02T16:19:47;11;8;
28026;PMS5003;15344;52.342;-1.290;2023-05-02T16:22:12;8;7;
28026;PMS5003;15344;52.342;-1.290;2023-05-02T16:24:37;7;7;
28026;PMS5003;15344;52.342;-1.290;2023-05-02T16:27:03;11;9;
28026;PMS5003;15344;52.342;-1.290;2023-05-02T16:29:28;9;9;
28026;PMS5003;15344;52.342;-1.290;2023-05-02T16:31:53;7;7;
28026;PMS5003;15344;52.342;-1.290;2023-05-02T16:34:18;7;7;
28026;PMS5003;15344;52.342;-1.290;2023-05-02T16:36:44;8;7;
28026;PMS5003;15344;52.342;-1.290;2023-05-02T16:39:09;11;8;
28026;PMS5003;15344;52.342;-1.290;2023-05-02T16:41:34;13;10;
28026;PMS5003;15344;52.342;-1.290;2023-05-02T16:43:59;11;10;
28026;PMS5003;15344;52.342;-1.290;2023-05-02T16:46:25;12;12;
28026;PMS5003;15344;52.342;-1.290;2023-05-02T16:48:50;10;10;
28026;PMS5003;15344;52.342;-1.290;2023-05-02T16:51:15;11;9;
28026;PMS5003;15344;52.342;-1.290;2023-05-02T16:53:40;10;9;
28026;PMS5003;15344;52.342;-1.290;2023-05-02T16:56:05;12;10;